Time;durP1;ratioP1;P1;durP2;ratioP2;P2;SDS_P1;SDS_P2;PMS_P1;PMS_P2;Temp;Humidity;BMP_temperature;BMP_pressure;BME280_temperature;BME280_humidity;BME280_pressure;Samples;Min_cycle;Max_cycle;Signal;HPM_P1;HPM_P2
2021/04/30 00:02:20;;;;;;;12.07;6.37;;;;;;;10.68;59.13;100378.38;124921;1102;104588;-77
2021/04/30 00:04:48;;;;;;;12.20;6.20;;;;;;;10.66;59.15;100381.78;124904;1102;104172;-77
2021/04/30 00:07:16;;;;;;;13.83;6.97;;;;;;;10.63;59.58;100376.42;124941;1099;102328;-77
2021/04/30 00:09:44;;;;;;;17.67;6.97;;;;;;;10.60;59.25;100365.00;124928;1099;104268;-77
2021/04/30 00:12:12;;;;;;;13.43;5.77;;;;;;;10.58;59.59;100365.78;124919;1102;104271;-77
2021/04/30 00:14:40;;;;;;;17.80;7.33;;;;;;;10.53;59.26;100360.41;124923;1099;104612;-77
2021/04/30 00:17:07;;;;;;;15.63;7.20;;;;;;;10.49;59.83;100363.76;124904;1102;104184;-77
2021/04/30 00:19:35;;;;;;;15.17;7.07;;;;;;;10.48;59.56;100359.34;124874;1099;104299;-77
2021/04/30 00:22:03;;;;;;;14.20;6.70;;;;;;;10.47;59.57;100351.42;124919;1102;104300;-77
2021/04/30 00:24:31;;;;;;;14.33;6.70;;;;;;;10.46;60.13;100350.53;124927;1100;104230;-77
2021/04/30 00:26:59;;;;;;;15.87;6.80;;;;;;;10.46;59.62;100349.66;124871;1099;104201;-77
2021/04/30 00:29:27;;;;;;;14.20;6.60;;;;;;;10.48;59.79;100350.59;124875;1099;104184;-77
2021/04/30 00:31:55;;;;;;;13.90;7.00;;;;;;;10.47;60.22;100354.04;124927;1099;104187;-77
2021/04/30 00:34:23;;;;;;;13.67;6.63;;;;;;;10.44;60.11;100360.09;124939;1102;104357;-78
2021/04/30 00:36:52;;;;;;;14.33;6.30;;;;;;;10.42;59.78;100360.05;124940;1099;104175;-78
2021/04/30 00:39:20;;;;;;;13.07;6.33;;;;;;;10.43;60.20;100359.19;124852;1102;104323;-78
2021/04/30 00:41:48;;;;;;;15.23;6.97;;;;;;;10.42;60.50;100349.55;124920;1099;104208;-77
2021/04/30 00:44:16;;;;;;;13.90;6.80;;;;;;;10.43;60.28;100353.94;124929;1099;104143;-78
2021/04/30 00:46:44;;;;;;;13.43;6.43;;;;;;;10.43;60.58;100348.69;124864;1099;104198;-77
2021/04/30 00:49:12;;;;;;;13.67;6.77;;;;;;;10.44;60.62;100344.36;124919;1099;104174;-76
2021/04/30 00:51:40;;;;;;;14.60;6.60;;;;;;;10.45;60.58;100339.99;124926;1099;104220;-75
2021/04/30 00:54:09;;;;;;;14.07;7.30;;;;;;;10.44;60.52;100333.86;124902;1099;104267;-76
2021/04/30 00:56:37;;;;;;;14.70;6.97;;;;;;;10.43;60.98;100340.81;124899;1099;104301;-76
2021/04/30 00:59:06;;;;;;;14.10;6.60;;;;;;;10.42;61.03;100331.19;124937;1099;104181;-75
2021/04/30 01:01:34;;;;;;;16.50;7.13;;;;;;;10.41;60.86;100328.52;124936;1099;104188;-76
2021/04/30 01:04:06;;;;;;;15.43;6.77;;;;;;;10.39;60.79;100323.22;124926;1099;104169;-77
2021/04/30 01:06:36;;;;;;;14.27;6.60;;;;;;;10.38;60.54;100324.05;124891;1099;104229;-76
2021/04/30 01:09:05;;;;;;;14.53;6.73;;;;;;;10.40;60.62;100330.22;124915;1100;104263;-78
2021/04/30 01:11:35;;;;;;;12.70;7.03;;;;;;;10.40;60.75;100330.22;124909;1099;104159;-76
2021/04/30 01:14:04;;;;;;;15.83;7.10;;;;;;;10.44;61.01;100333.86;124876;1102;104275;-77
2021/04/30 01:16:32;;;;;;;13.25;6.80;;;;;;;10.46;60.81;100320.80;124891;1099;104185;-77
2021/04/30 01:19:00;;;;;;;13.30;6.83;;;;;;;10.49;60.71;100334.02;124890;1099;104165;-78
2021/04/30 01:21:28;;;;;;;14.33;7.07;;;;;;;10.49;60.86;100337.52;124911;1099;104194;-78
2021/04/30 01:23:56;;;;;;;16.93;6.87;;;;;;;10.45;61.22;100335.63;124925;1102;104169;-78
2021/04/30 01:26:24;;;;;;;15.13;7.03;;;;;;;10.41;60.90;100329.39;124954;1100;104242;-78
2021/04/30 01:28:52;;;;;;;14.83;7.13;;;;;;;10.38;60.99;100334.53;124852;1102;104358;-77
2021/04/30 01:31:20;;;;;;;13.57;7.40;;;;;;;10.34;61.41;100326.52;124858;1099;104166;-77
2021/04/30 01:33:58;;;;;;;16.20;7.37;;;;;;;10.32;61.42;100322.92;124935;1102;104248;-77
2021/04/30 01:36:29;;;;;;;15.37;7.20;;;;;;;10.29;61.24;100318.45;124936;1099;104178;-77
2021/04/30 01:38:57;;;;;;;14.07;6.50;;;;;;;10.25;60.99;100317.47;124921;1099;104178;-77
2021/04/30 01:41:25;;;;;;;14.53;6.90;;;;;;;10.23;61.56;100313.88;124902;1099;104287;-77
2021/04/30 01:43:53;;;;;;;15.80;6.97;;;;;;;10.22;61.21;100316.45;124936;1099;104181;-77
2021/04/30 01:46:22;;;;;;;13.77;6.73;;;;;;;10.19;61.37;100312.02;124911;1099;104224;-76
2021/04/30 01:48:51;;;;;;;15.57;7.00;;;;;;;10.15;61.13;100311.86;124952;1098;104166;-77
2021/04/30 01:51:19;;;;;;;18.30;8.20;;;;;;;10.10;61.85;100302.92;124970;1099;104265;-77
2021/04/30 01:53:47;;;;;;;17.07;7.23;;;;;;;10.06;61.37;100308.05;124809;1099;104344;-77
2021/04/30 01:56:16;;;;;;;15.90;7.50;;;;;;;10.04;61.77;100311.48;124919;1099;104175;-77
2021/04/30 01:58:44;;;;;;;15.43;8.00;;;;;;;10.04;61.46;100306.23;124920;1099;104238;-77
2021/04/30 02:01:12;;;;;;;17.00;7.70;;;;;;;10.04;61.48;100312.36;124896;1099;104187;-77
2021/04/30 02:03:40;;;;;;;14.77;7.13;;;;;;;10.03;61.51;100302.70;124892;1099;104287;-77
2021/04/30 02:06:08;;;;;;;15.77;7.70;;;;;;;10.04;61.44;100306.23;124908;1102;104216;-77
2021/04/30 02:08:36;;;;;;;15.57;7.13;;;;;;;10.06;61.71;100305.44;124947;1099;104172;-77
2021/04/30 02:11:05;;;;;;;15.93;7.83;;;;;;;10.07;61.90;100301.98;124879;1102;104236;-77
2021/04/30 02:13:34;;;;;;;18.03;8.00;;;;;;;10.05;62.27;100302.76;124953;1099;104169;-77
2021/04/30 02:16:02;;;;;;;17.07;7.80;;;;;;;10.01;61.89;100299.15;124979;1102;104174;-77
2021/04/30 02:18:30;;;;;;;16.37;8.27;;;;;;;10.00;62.40;100293.85;124857;1099;105342;-77
2021/04/30 02:20:58;;;;;;;15.10;7.70;;;;;;;9.97;62.02;100299.91;124941;1099;104204;-78
2021/04/30 02:23:27;;;;;;;16.63;7.67;;;;;;;9.95;62.54;100296.31;124878;1099;104166;-77
2021/04/30 02:25:55;;;;;;;14.53;8.00;;;;;;;9.94;62.26;100296.26;124879;1100;104191;-78
2021/04/30 02:28:23;;;;;;;18.60;8.23;;;;;;;9.94;62.32;100296.26;124921;1099;104576;-77
2021/04/30 02:30:51;;;;;;;17.83;8.23;;;;;;;9.96;62.34;100297.23;124876;1099;104516;-77
2021/04/30 02:33:19;;;;;;;16.00;7.80;;;;;;;9.94;62.56;100297.17;124973;1099;104169;-77
2021/04/30 02:35:52;;;;;;;16.80;7.87;;;;;;;9.91;62.29;100294.44;124876;1100;105482;-77
2021/04/30 02:38:22;;;;;;;17.03;7.90;;;;;;;9.90;62.22;100297.89;125014;1099;104294;-78
2021/04/30 02:40:55;;;;;;;17.37;7.83;;;;;;;9.85;62.77;100299.47;124887;1099;104188;-78
2021/04/30 02:43:24;;;;;;;19.67;7.90;;;;;;;9.79;62.81;100297.52;124854;1099;104156;-78
2021/04/30 02:45:52;;;;;;;18.30;8.37;;;;;;;9.77;62.66;100287.80;124958;1099;104162;-78
2021/04/30 02:48:27;;;;;;;19.87;8.47;;;;;;;9.79;62.88;100294.02;124899;1099;104198;-78
2021/04/30 02:50:55;;;;;;;19.27;8.47;;;;;;;9.80;62.90;100294.06;124875;1100;104165;-79
2021/04/30 02:53:23;;;;;;;19.20;8.90;;;;;;;9.81;62.79;100301.06;124926;1100;104291;-78
2021/04/30 02:55:52;;;;;;;19.30;9.00;;;;;;;9.84;62.75;100297.67;124903;1099;104408;-79
2021/04/30 02:58:20;;;;;;;20.63;8.80;;;;;;;9.85;62.57;100302.97;124870;1099;104293;-78
2021/04/30 03:00:50;;;;;;;17.80;8.60;;;;;;;9.87;62.85;100298.66;124923;1100;104201;-78
2021/04/30 03:03:19;;;;;;;16.53;8.63;;;;;;;9.89;63.02;100306.58;124906;1099;105395;-78
2021/04/30 03:05:48;;;;;;;20.63;8.47;;;;;;;9.90;62.60;100295.27;124915;1099;104166;-78
2021/04/30 03:08:17;;;;;;;16.53;8.23;;;;;;;9.91;63.17;100297.06;124913;1099;104328;-78
2021/04/30 03:10:45;;;;;;;19.13;8.30;;;;;;;9.87;63.12;100296.05;124950;1102;104319;-78
2021/04/30 03:13:13;;;;;;;18.57;8.77;;;;;;;9.86;63.27;100301.23;124905;1102;104309;-79
2021/04/30 03:15:41;;;;;;;19.37;8.67;;;;;;;9.85;63.25;100307.33;124921;1099;104290;-78
2021/04/30 03:18:09;;;;;;;19.87;9.50;;;;;;;9.86;62.84;100295.98;124966;1099;104175;-79
2021/04/30 03:20:37;;;;;;;18.03;8.50;;;;;;;9.92;63.26;100305.81;124867;1099;104176;-78
2021/04/30 03:23:05;;;;;;;18.70;8.13;;;;;;;9.93;63.21;100300.63;124884;1103;104226;-78
2021/04/30 03:25:33;;;;;;;18.83;8.90;;;;;;;10.01;63.34;100296.53;124910;1102;104367;-79
2021/04/30 03:28:01;;;;;;;17.73;7.93;;;;;;;10.04;63.58;100295.75;124933;1099;104220;-79
2021/04/30 03:30:28;;;;;;;16.23;7.90;;;;;;;10.04;63.12;100301.00;124905;1099;104369;-79
2021/04/30 03:32:56;;;;;;;19.53;8.47;;;;;;;10.10;63.05;100308.16;124887;1102;104171;-79
2021/04/30 03:35:24;;;;;;;19.60;8.30;;;;;;;10.14;63.09;100310.94;124923;1099;104175;-79
2021/04/30 03:37:52;;;;;;;17.45;8.85;;;;;;;10.21;63.68;100312.95;124957;1099;104166;-79
2021/04/30 03:40:20;;;;;;;16.27;8.43;;;;;;;10.28;63.21;100323.65;124935;1099;104210;-76
2021/04/30 03:42:48;;;;;;;14.97;7.80;;;;;;;10.33;63.58;100319.47;124897;1099;104152;-76
2021/04/30 03:45:16;;;;;;;17.93;7.87;;;;;;;10.38;63.25;100328.41;124879;1102;104156;-77
2021/04/30 03:47:43;;;;;;;21.07;8.43;;;;;;;10.45;63.62;100316.38;124958;1099;104181;-77
2021/04/30 03:50:12;;;;;;;18.87;8.30;;;;;;;10.56;63.35;100321.13;124941;1099;104239;-77
2021/04/30 03:52:41;;;;;;;17.80;8.20;;;;;;;10.70;63.86;100323.31;124819;1099;104299;-77
2021/04/30 03:55:11;;;;;;;19.90;8.93;;;;;;;10.77;63.71;100320.94;124941;1102;104290;-77
2021/04/30 03:57:39;;;;;;;22.70;8.33;;;;;;;10.84;63.50;100316.77;124873;1102;104181;-77
2021/04/30 04:00:08;;;;;;;19.73;8.70;;;;;;;10.90;63.54;100321.33;124655;1102;104265;-76
2021/04/30 04:02:47;;;;;;;17.67;8.17;;;;;;;10.94;63.66;100316.23;124882;1102;104173;-77
2021/04/30 04:05:15;;;;;;;20.97;8.40;;;;;;;10.97;63.20;100315.44;124858;1102;104218;-77
2021/04/30 04:07:42;;;;;;;16.67;8.30;;;;;;;11.03;63.56;100320.88;124937;1102;104348;-78
2021/04/30 04:10:11;;;;;;;22.20;8.87;;;;;;;11.12;63.48;100328.13;124870;1102;104278;-78
2021/04/30 04:12:40;;;;;;;18.13;8.03;;;;;;;11.23;63.45;100320.58;125007;1102;104233;-80
2021/04/30 04:15:09;;;;;;;17.57;8.57;;;;;;;11.33;63.41;100315.66;124876;1102;104287;-79
2021/04/30 04:17:37;;;;;;;18.73;8.60;;;;;;;11.43;63.47;100322.06;124890;1102;104159;-80
2021/04/30 04:20:07;;;;;;;15.97;8.37;;;;;;;11.58;63.60;100313.74;125002;1102;104176;-80
2021/04/30 04:22:35;;;;;;;21.67;9.07;;;;;;;11.72;63.39;100308.88;124798;1102;104175;-78
2021/04/30 04:25:04;;;;;;;15.40;8.50;;;;;;;11.84;63.49;100308.31;124916;1102;104251;-78
2021/04/30 04:27:32;;;;;;;19.17;9.53;;;;;;;11.99;63.42;100307.87;124934;1099;104201;-78
2021/04/30 04:30:01;;;;;;;18.95;8.70;;;;;;;12.16;62.96;100306.58;124941;1099;104178;-78
2021/04/30 04:32:29;;;;;;;21.63;9.67;;;;;;;12.28;63.26;100306.02;124930;1099;104307;-78
2021/04/30 04:34:57;;;;;;;19.60;8.80;;;;;;;12.40;63.11;100306.33;124877;1102;104303;-78
2021/04/30 04:37:24;;;;;;;19.60;8.37;;;;;;;12.51;63.19;100311.86;124853;1102;104290;-78
2021/04/30 04:39:52;;;;;;;17.67;8.70;;;;;;;12.55;63.14;100310.19;124907;1099;104181;-78
2021/04/30 04:42:24;;;;;;;21.93;9.47;;;;;;;12.59;63.26;100304.16;124979;1099;104204;-79
2021/04/30 04:44:53;;;;;;;16.93;8.53;;;;;;;12.65;63.34;100306.03;125002;1099;104162;-78
2021/04/30 04:47:21;;;;;;;19.60;9.87;;;;;;;12.69;63.00;100310.52;124918;1099;104349;-78
2021/04/30 04:49:49;;;;;;;20.60;9.90;;;;;;;12.74;62.90;100304.50;124939;1099;104162;-78
2021/04/30 04:52:18;;;;;;;19.67;9.80;;;;;;;12.79;63.33;100303.73;124926;1099;104175;-77
2021/04/30 04:54:46;;;;;;;21.00;9.90;;;;;;;12.82;62.59;100295.90;124891;1100;104182;-77
2021/04/30 04:57:14;;;;;;;21.07;9.43;;;;;;;12.80;62.94;100297.63;124897;1102;104412;-78
2021/04/30 04:59:42;;;;;;;24.80;10.03;;;;;;;12.76;62.96;100304.53;124871;1102;104194;-78
2021/04/30 05:02:10;;;;;;;19.23;9.60;;;;;;;12.82;63.13;100311.70;124959;1099;105323;-78
2021/04/30 05:04:38;;;;;;;22.13;9.90;;;;;;;12.90;62.85;100310.12;124927;1099;104264;-78
2021/04/30 05:07:06;;;;;;;19.70;9.87;;;;;;;12.94;62.53;100309.35;124944;1099;104175;-78
2021/04/30 05:09:34;;;;;;;18.77;8.83;;;;;;;13.01;62.83;100310.38;124828;1102;104627;-78
2021/04/30 05:12:02;;;;;;;20.83;10.20;;;;;;;13.03;62.90;100304.30;124901;1102;102801;-77
2021/04/30 05:14:31;;;;;;;19.77;9.50;;;;;;;13.03;62.48;100313.95;124861;1099;104252;-78
2021/04/30 05:17:00;;;;;;;23.30;10.93;;;;;;;13.07;62.58;100310.52;124940;1099;104166;-79
2021/04/30 05:19:28;;;;;;;20.33;9.83;;;;;;;13.12;62.86;100316.80;124861;1099;104181;-78
2021/04/30 05:22:00;;;;;;;19.73;9.50;;;;;;;13.22;62.74;100315.25;125570;1099;104230;-78
2021/04/30 05:24:28;;;;;;;17.80;9.10;;;;;;;13.32;63.18;100317.20;125579;1099;104182;-76
2021/04/30 05:26:56;;;;;;;19.40;8.57;;;;;;;13.39;63.25;100321.80;125586;1099;104176;-79
2021/04/30 05:29:24;;;;;;;18.27;9.20;;;;;;;13.50;62.47;100326.42;125646;1099;104201;-79
2021/04/30 05:31:52;;;;;;;19.07;9.57;;;;;;;13.58;62.62;100314.28;125667;1099;104230;-79
2021/04/30 05:34:20;;;;;;;17.97;9.10;;;;;;;13.61;62.55;100323.12;125597;1099;105618;-79
2021/04/30 05:36:47;;;;;;;16.00;8.70;;;;;;;13.64;62.76;100323.19;125966;1099;104322;-80
2021/04/30 05:39:16;;;;;;;19.65;9.25;;;;;;;13.61;62.28;100320.49;125588;1099;104487;-78
2021/04/30 05:41:44;;;;;;;19.30;8.97;;;;;;;13.58;62.97;100315.16;125622;1099;104676;-78
2021/04/30 05:44:13;;;;;;;21.75;8.90;;;;;;;13.61;62.60;100315.22;125586;1099;104172;-79
2021/04/30 05:46:41;;;;;;;20.33;9.17;;;;;;;13.69;63.33;100312.73;126106;1099;102347;-80
2021/04/30 05:49:09;;;;;;;17.00;9.23;;;;;;;13.75;63.42;100319.89;125616;1099;104369;-79
2021/04/30 05:51:43;;;;;;;18.07;8.37;;;;;;;13.81;63.11;100318.26;125639;1099;104172;-79
2021/04/30 05:54:12;;;;;;;22.82;9.70;;;;;;;13.84;62.53;100313.04;125540;1098;104264;-78
2021/04/30 05:56:40;;;;;;;21.67;8.40;;;;;;;13.89;62.76;100318.41;126113;1099;104162;-79
2021/04/30 05:59:09;;;;;;;17.87;8.90;;;;;;;13.94;62.95;100319.38;125830;1099;104069;-77
2021/04/30 06:01:39;;;;;;;20.23;8.67;;;;;;;14.04;62.28;100320.46;125498;1099;104192;-77
2021/04/30 06:04:23;;;;;;;17.35;8.20;;;;;;;14.14;62.56;100321.52;125658;1099;104160;-77
2021/04/30 06:06:52;;;;;;;18.05;8.20;;;;;;;14.21;62.72;100331.33;124871;1102;104505;-78
2021/04/30 06:09:36;;;;;;;19.57;9.20;;;;;;;14.29;62.08;100334.08;125462;1102;102314;-77
2021/04/30 06:12:19;;;;;;;16.62;8.33;;;;;;;14.41;62.35;100328.14;124580;1102;104198;-78
2021/04/30 06:14:47;;;;;;;17.40;7.50;;;;;;;14.59;62.09;100333.73;124507;1105;104546;-77
2021/04/30 06:17:15;;;;;;;16.45;8.55;;;;;;;14.71;62.92;100326.05;124603;1105;104660;-78
2021/04/30 06:19:42;;;;;;;21.73;9.13;;;;;;;14.84;63.08;100324.48;124604;1105;104194;-77
2021/04/30 06:22:10;;;;;;;15.30;8.37;;;;;;;14.94;62.29;100314.92;124641;1105;104513;-77
2021/04/30 06:24:38;;;;;;;17.17;7.73;;;;;;;15.06;62.22;100315.11;124592;1105;104178;-78
2021/04/30 06:27:07;;;;;;;17.90;8.97;;;;;;;15.07;61.63;100316.90;124593;1105;104409;-77
2021/04/30 06:29:35;;;;;;;16.80;8.20;;;;;;;15.08;62.80;100316.05;124597;1105;104437;-78
2021/04/30 06:32:04;;;;;;;20.83;9.30;;;;;;;15.12;61.71;100311.68;124602;1105;104968;-76
2021/04/30 06:34:33;;;;;;;15.20;8.20;;;;;;;15.16;62.20;100316.16;124648;1105;102246;-77
2021/04/30 06:37:04;;;;;;;17.93;9.03;;;;;;;15.20;61.78;100317.08;124661;1105;104195;-79
2021/04/30 06:39:34;;;;;;;17.50;8.70;;;;;;;15.26;61.89;100312.75;124632;1105;104203;-78
2021/04/30 06:42:05;;;;;;;16.10;8.63;;;;;;;15.35;61.94;100314.64;124678;1102;104128;-79
2021/04/30 06:44:34;;;;;;;15.00;7.10;;;;;;;15.46;62.16;100312.14;124856;1099;104246;-77
2021/04/30 06:47:04;;;;;;;17.10;8.30;;;;;;;15.58;62.20;100311.38;124923;1099;104337;-76
2021/04/30 06:49:33;;;;;;;19.37;8.20;;;;;;;15.68;62.27;100312.41;124975;1102;104195;-78
2021/04/30 06:52:03;;;;;;;18.70;8.10;;;;;;;15.74;61.77;100310.71;124931;1102;104411;-79
2021/04/30 06:54:33;;;;;;;18.73;8.23;;;;;;;15.79;61.88;100313.45;125250;1099;104367;-79
2021/04/30 06:57:02;;;;;;;18.17;8.40;;;;;;;15.81;61.11;100320.51;125518;1098;104262;-77
2021/04/30 06:59:31;;;;;;;16.77;8.70;;;;;;;15.91;61.35;100317.97;125758;1099;104210;-77
2021/04/30 07:02:03;;;;;;;16.77;8.37;;;;;;;16.02;61.75;100311.05;125729;1099;104262;-77
2021/04/30 07:04:33;;;;;;;14.43;8.13;;;;;;;16.20;62.14;100302.39;125636;1099;104156;-76
2021/04/30 07:07:05;;;;;;;17.17;8.43;;;;;;;16.38;61.64;100299.04;125999;1099;104229;-77
2021/04/30 07:09:34;;;;;;;18.37;8.97;;;;;;;16.57;61.90;100291.25;125059;1099;109352;-77
2021/04/30 07:12:03;;;;;;;17.80;8.30;;;;;;;16.71;60.94;100289.58;125645;1099;104201;-79
2021/04/30 07:14:34;;;;;;;15.87;8.07;;;;;;;16.83;61.10;100291.45;125564;1099;104232;-77
2021/04/30 07:17:06;;;;;;;16.27;7.77;;;;;;;17.05;61.52;100289.84;125105;1099;104227;-77
2021/04/30 07:19:35;;;;;;;16.07;8.03;;;;;;;17.24;60.99;100302.30;125570;1099;104160;-76
2021/04/30 07:22:14;;;;;;;16.20;8.40;;;;;;;17.43;61.05;100302.40;125575;1099;104194;-77
2021/04/30 07:24:43;;;;;;;17.37;8.37;;;;;;;17.60;61.06;100306.00;125069;1099;104159;-76
2021/04/30 07:27:12;;;;;;;15.75;7.35;;;;;;;17.74;60.47;100310.48;125636;1099;104210;-79
2021/04/30 07:29:41;;;;;;;16.80;8.17;;;;;;;17.87;60.61;100304.34;125649;1099;104169;-76
2021/04/30 07:32:18;;;;;;;15.40;7.77;;;;;;;18.03;60.63;100302.64;125645;1099;104363;-76
2021/04/30 07:34:47;;;;;;;15.97;7.50;;;;;;;18.22;60.46;100294.70;125587;1099;104150;-78
2021/04/30 07:37:16;;;;;;;17.77;7.83;;;;;;;18.33;60.41;100298.25;125562;1099;104169;-79
2021/04/30 07:39:45;;;;;;;16.90;7.60;;;;;;;18.45;60.17;100300.00;125102;1099;104218;-79
2021/04/30 07:42:19;;;;;;;14.37;7.43;;;;;;;18.57;59.69;100294.69;125647;1099;102366;-79
2021/04/30 07:44:55;;;;;;;17.17;7.53;;;;;;;18.68;59.82;100295.59;125837;1099;104169;-78
2021/04/30 07:47:23;;;;;;;19.90;7.40;;;;;;;18.79;59.79;100289.36;125589;1099;104238;-77
2021/04/30 07:49:53;;;;;;;15.60;7.83;;;;;;;18.83;59.34;100285.82;125646;1099;104168;-76
2021/04/30 07:52:22;;;;;;;17.60;7.67;;;;;;;18.86;59.70;100284.06;124982;1099;104175;-77
2021/04/30 07:54:51;;;;;;;16.73;7.47;;;;;;;18.96;58.66;100276.95;124897;1102;104303;-76
2021/04/30 07:57:33;;;;;;;16.13;7.63;;;;;;;19.03;59.45;100283.16;125022;1101;104252;-79
2021/04/30 08:00:09;;;;;;;15.73;7.27;;;;;;;19.15;58.98;100288.45;125024;1102;104162;-76
2021/04/30 08:03:04;;;;;;;15.50;7.50;;;;;;;19.26;59.25;100287.51;125436;1102;104213;-76
2021/04/30 08:06:10;;;;;;;17.27;8.00;;;;;;;19.29;58.53;100290.16;124923;1102;104313;-77
2021/04/30 08:08:41;;;;;;;15.87;6.87;;;;;;;19.34;58.48;100275.96;124796;1102;104306;-77
2021/04/30 08:11:36;;;;;;;18.33;7.60;;;;;;;19.40;58.96;100275.94;124625;1102;104220;-78
2021/04/30 08:14:09;;;;;;;12.53;7.00;;;;;;;19.42;57.49;100283.05;124665;1102;104360;-77
2021/04/30 08:16:42;;;;;;;14.20;7.27;;;;;;;19.47;58.62;100271.47;124633;1105;104249;-77
2021/04/30 08:19:12;;;;;;;16.50;7.70;;;;;;;19.57;58.40;100264.31;124781;1102;104245;-80
2021/04/30 08:22:01;;;;;;;15.03;7.77;;;;;;;19.72;57.76;100266.03;124653;1105;104488;-79
2021/04/30 08:24:36;;;;;;;19.47;7.97;;;;;;;19.90;58.25;100251.77;124667;1102;104252;-78
2021/04/30 08:27:22;;;;;;;16.73;7.47;;;;;;;19.99;57.27;100254.37;124846;1102;104179;-79
2021/04/30 08:29:52;;;;;;;17.90;7.60;;;;;;;19.98;57.23;100246.39;125337;1102;102172;-77
2021/04/30 08:32:20;;;;;;;14.50;7.00;;;;;;;19.95;56.85;100238.42;124900;1102;104158;-78
2021/04/30 08:34:58;;;;;;;16.00;7.80;;;;;;;19.96;56.27;100241.08;124851;1102;104184;-78
2021/04/30 08:37:28;;;;;;;14.00;6.80;;;;;;;20.03;57.19;100234.79;124938;1102;104515;-77
2021/04/30 08:40:03;;;;;;;13.70;7.43;;;;;;;20.18;56.20;100232.90;124915;1102;104287;-78
2021/04/30 08:42:33;;;;;;;16.23;7.03;;;;;;;20.36;56.25;100239.87;124924;1102;104456;-77
2021/04/30 08:45:16;;;;;;;18.65;8.10;;;;;;;20.41;56.20;100238.94;125527;1099;104176;-77
2021/04/30 08:47:47;;;;;;;12.80;6.83;;;;;;;20.51;55.29;100242.39;125471;1099;104162;-77
2021/04/30 08:50:26;;;;;;;12.67;6.23;;;;;;;20.58;55.48;100237.88;125609;1099;104214;-77
2021/04/30 08:52:55;;;;;;;15.87;7.13;;;;;;;20.68;55.71;100242.27;125535;1099;104152;-78
2021/04/30 08:55:24;;;;;;;15.55;7.30;;;;;;;20.72;55.17;100245.78;125646;1099;104197;-77
2021/04/30 08:57:54;;;;;;;12.83;6.63;;;;;;;20.75;54.49;100241.30;125599;1099;104586;-76
2021/04/30 09:00:28;;;;;;;12.83;6.70;;;;;;;20.77;55.44;100244.84;124975;1099;104332;-77
2021/04/30 09:03:00;;;;;;;15.00;6.70;;;;;;;20.81;54.55;100240.36;125675;1099;104265;-78
2021/04/30 09:05:34;;;;;;;16.57;6.90;;;;;;;20.91;55.59;100241.13;126071;1099;104576;-76
2021/04/30 09:08:03;;;;;;;11.30;6.10;;;;;;;20.99;55.21;100241.95;125068;1099;104200;-78
2021/04/30 09:10:40;;;;;;;13.53;6.60;;;;;;;20.97;54.47;100241.97;124970;1100;104290;-76
2021/04/30 09:13:10;;;;;;;15.63;6.33;;;;;;;20.99;54.44;100240.16;125545;1099;104204;-77
2021/04/30 09:16:02;;;;;;;13.57;6.63;;;;;;;20.95;54.92;100225.08;125479;1099;104357;-75
2021/04/30 09:18:32;;;;;;;13.50;6.00;;;;;;;21.03;53.52;100232.12;125529;1099;104172;-77
2021/04/30 09:21:12;;;;;;;13.37;6.23;;;;;;;21.06;53.77;100232.95;125646;1099;104162;-75
2021/04/30 09:23:43;;;;;;;12.50;6.47;;;;;;;21.16;53.81;100223.95;125478;1099;104175;-77
2021/04/30 09:26:23;;;;;;;11.63;5.50;;;;;;;21.28;54.23;100224.70;125573;1099;104191;-78
2021/04/30 09:29:17;;;;;;;10.70;5.57;;;;;;;21.34;54.00;100216.61;125630;1099;104197;-78
2021/04/30 09:31:51;;;;;;;14.27;6.53;;;;;;;21.38;53.24;100223.69;125594;1099;104232;-79
2021/04/30 09:34:25;;;;;;;;;;;;;;;21.38;53.08;100221.02;125405;1099;104156;-79
2021/04/30 09:37:16;;;;;;;13.73;5.87;;;;;;;21.34;53.92;100225.49;126735;1099;101881;-78
2021/04/30 09:40:01;;;;;;;11.40;5.30;;;;;;;21.43;53.21;100227.17;125485;1099;104335;-80
2021/04/30 09:43:04;;;;;;;12.40;5.20;;;;;;;21.47;53.63;100220.90;125848;1100;104786;-78
2021/04/30 09:45:44;;;;;;;13.70;6.50;;;;;;;21.60;53.32;100226.07;125040;1099;111233;-78
2021/04/30 09:48:14;;;;;;;10.17;5.60;;;;;;;21.69;53.97;100209.92;125707;1098;104201;-79
2021/04/30 09:50:47;;;;;;;11.13;5.30;;;;;;;21.82;53.54;100218.66;125503;1099;104229;-77
2021/04/30 09:53:32;;;;;;;12.80;5.60;;;;;;;21.81;52.88;100208.88;124995;1099;104352;-78
2021/04/30 09:56:13;;;;;;;10.87;5.53;;;;;;;21.79;52.52;100208.89;125595;1099;104175;-77
2021/04/30 09:58:45;;;;;;;12.53;5.57;;;;;;;21.80;51.70;100216.01;125629;1099;104204;-76
2021/04/30 10:01:23;;;;;;;11.20;5.60;;;;;;;21.79;51.66;100218.70;125645;1099;104641;-77
2021/04/30 10:03:52;;;;;;;14.03;5.80;;;;;;;21.78;52.80;100219.59;125596;1099;104245;-77
2021/04/30 10:06:20;;;;;;;12.13;5.70;;;;;;;21.79;52.69;100221.38;124884;1099;104418;-77
2021/04/30 10:09:05;;;;;;;10.27;5.53;;;;;;;21.82;51.69;100214.19;124932;1099;104163;-78
2021/04/30 10:11:43;;;;;;;13.35;5.75;;;;;;;21.89;51.91;100210.53;124877;1099;104210;-78
2021/04/30 10:14:13;;;;;;;11.97;5.73;;;;;;;21.94;51.56;100209.55;124861;1099;104277;-77
2021/04/30 10:16:46;;;;;;;10.13;5.50;;;;;;;21.94;51.24;100204.21;124853;1099;104344;-76
2021/04/30 10:19:14;;;;;;;11.97;5.43;;;;;;;21.98;51.44;100208.61;124824;1099;104172;-77
2021/04/30 10:21:50;;;;;;;12.87;6.07;;;;;;;21.98;51.79;100206.81;124906;1099;104344;-78
2021/04/30 10:24:19;;;;;;;11.60;5.50;;;;;;;22.03;51.89;100193.37;124861;1099;104284;-76
2021/04/30 10:26:54;;;;;;;12.53;5.47;;;;;;;22.07;51.80;100195.11;124931;1100;106990;-77
2021/04/30 10:29:26;;;;;;;12.40;5.50;;;;;;;22.07;52.08;100197.78;124878;1099;104166;-77
2021/04/30 10:32:00;;;;;;;10.30;5.43;;;;;;;22.07;51.02;100189.77;124902;1099;103118;-77
2021/04/30 10:34:37;;;;;;;15.13;5.80;;;;;;;22.10;52.11;100187.04;124877;1099;104267;-76
2021/04/30 10:37:06;;;;;;;10.70;5.63;;;;;;;22.19;51.42;100180.64;124974;1099;109625;-76
2021/04/30 10:39:36;;;;;;;15.83;6.03;;;;;;;22.25;51.26;100175.19;125595;1099;104287;-76
2021/04/30 10:42:11;;;;;;;8.67;5.10;;;;;;;22.31;51.37;100183.13;125583;1099;104293;-77
2021/04/30 10:44:43;;;;;;;10.70;5.50;;;;;;;22.40;51.34;100179.42;126357;1098;104393;-77
2021/04/30 10:47:37;;;;;;;14.03;5.40;;;;;;;22.47;51.30;100173.07;124995;1102;104175;-77
2021/04/30 10:50:20;;;;;;;13.77;6.43;;;;;;;22.54;50.70;100172.02;124815;1102;104351;-77
2021/04/30 10:53:24;;;;;;;17.23;5.60;;;;;;;22.62;50.69;100174.55;124818;1101;104171;-77
2021/04/30 10:55:54;;;;;;;11.70;5.40;;;;;;;22.72;50.82;100167.22;124909;1101;104178;-78
2021/04/30 10:58:37;;;;;;;11.23;5.70;;;;;;;22.76;50.29;100168.94;124861;1102;104225;-77
2021/04/30 11:01:24;;;;;;;12.90;4.93;;;;;;;22.79;50.35;100167.08;124913;1102;104203;-78
2021/04/30 11:04:12;;;;;;;11.93;5.47;;;;;;;22.83;49.75;100159.89;124947;1102;104177;-79
2021/04/30 11:06:43;;;;;;;9.07;5.20;;;;;;;22.89;48.91;100165.13;124919;1102;104414;-78
2021/04/30 11:09:19;;;;;;;10.13;5.10;;;;;;;22.96;49.78;100166.73;124958;1103;104169;-77
2021/04/30 11:11:48;;;;;;;11.17;5.37;;;;;;;22.98;50.17;100167.61;124868;1102;104331;-77
2021/04/30 11:14:36;;;;;;;11.47;5.23;;;;;;;23.05;49.96;100162.13;124928;1102;104332;-77
2021/04/30 11:17:09;;;;;;;13.07;5.30;;;;;;;23.19;50.08;100159.16;124971;1100;104299;-78
2021/04/30 11:19:45;;;;;;;;;;;;;;;23.33;49.73;100162.44;125514;1099;104169;-77
2021/04/30 11:22:16;;;;;;;14.47;5.50;;;;;;;23.38;49.65;100156.98;125631;1099;104177;-77